createdAt,value
2022-12-12T00:01:18.832Z,11.15
2022-12-12T00:03:45.749Z,11.07
2022-12-12T00:06:12.654Z,10.99
2022-12-12T00:08:39.408Z,10.91
2022-12-12T00:11:06.623Z,11.01
2022-12-12T00:13:34.332Z,10.99
2022-12-12T00:16:01.251Z,11.06
2022-12-12T00:18:27.996Z,11.07
2022-12-12T00:20:56.253Z,11.07
2022-12-12T00:23:26.701Z,11.08
2022-12-12T00:25:58.526Z,11.15
2022-12-12T00:28:25.346Z,11.13
2022-12-12T00:30:52.225Z,11.11
2022-12-12T00:33:19.193Z,11.06
2022-12-12T00:35:49.135Z,11.15
2022-12-12T00:38:17.345Z,11.11
2022-12-12T00:40:43.960Z,11.12
2022-12-12T00:43:11.071Z,11.12
2022-12-12T00:45:38.272Z,11.10
2022-12-12T00:48:05.773Z,11.18
2022-12-12T00:50:33.628Z,11.13
2022-12-12T00:53:00.440Z,11.11
2022-12-12T00:55:27.662Z,11.06
2022-12-12T00:57:54.395Z,10.98
2022-12-12T01:00:22.557Z,11.01
2022-12-12T01:02:49.400Z,11.04
2022-12-12T01:05:17.008Z,11.03
2022-12-12T01:07:43.944Z,11.04
2022-12-12T01:10:10.926Z,10.92
2022-12-12T01:12:37.612Z,10.73
2022-12-12T01:15:07.203Z,10.75
2022-12-12T01:17:37.852Z,10.68
2022-12-12T01:20:16.207Z,10.70
2022-12-12T01:22:42.934Z,10.63
2022-12-12T01:25:12.229Z,10.59
2022-12-12T01:27:39.196Z,10.62
2022-12-12T01:30:07.561Z,10.69
2022-12-12T01:32:34.283Z,10.73
2022-12-12T01:35:00.903Z,10.65
2022-12-12T01:37:27.608Z,10.42
2022-12-12T01:39:54.319Z,10.28
2022-12-12T01:42:21.096Z,10.29
2022-12-12T01:44:53.143Z,10.19
2022-12-12T01:47:21.275Z,10.09
2022-12-12T01:49:58.306Z,9.99
2022-12-12T01:52:44.151Z,10.12
2022-12-12T01:55:17.367Z,10.19
2022-12-12T01:57:48.142Z,10.22
2022-12-12T02:00:15.896Z,10.28
2022-12-12T02:02:46.337Z,10.27
2022-12-12T02:05:25.755Z,10.22
2022-12-12T02:07:53.178Z,10.11
2022-12-12T02:10:20.557Z,10.16
2022-12-12T02:12:47.476Z,10.17
2022-12-12T02:15:14.556Z,10.22
2022-12-12T02:18:03.813Z,10.21
2022-12-12T02:20:59.051Z,10.16
2022-12-12T02:24:02.835Z,10.19
2022-12-12T02:26:52.268Z,10.25
2022-12-12T02:29:40.003Z,10.20
2022-12-12T02:32:21.552Z,10.24
2022-12-12T02:35:12.035Z,10.20
2022-12-12T02:37:53.604Z,10.15
2022-12-12T02:40:40.896Z,9.92
2022-12-12T02:43:30.628Z,9.98
2022-12-12T02:46:07.326Z,9.92
2022-12-12T02:48:39.398Z,9.95
2022-12-12T02:51:08.130Z,9.98
2022-12-12T02:53:34.853Z,9.88
2022-12-12T02:56:07.149Z,9.83
2022-12-12T02:58:40.940Z,9.84
2022-12-12T03:01:36.847Z,9.73
2022-12-12T03:04:32.629Z,9.79
2022-12-12T03:07:28.915Z,9.75
2022-12-12T03:10:15.380Z,9.59
2022-12-12T03:13:03.656Z,9.57
2022-12-12T03:16:04.270Z,9.59
2022-12-12T03:18:42.103Z,9.48
2022-12-12T03:21:24.295Z,9.27
2022-12-12T03:23:53.566Z,9.22
2022-12-12T03:26:27.549Z,9.02
2022-12-12T03:29:11.370Z,9.02
2022-12-12T03:31:43.201Z,8.95
2022-12-12T03:34:19.967Z,8.88
2022-12-12T03:36:55.864Z,8.83
2022-12-12T03:39:32.270Z,8.73
2022-12-12T03:42:08.722Z,8.65
2022-12-12T03:44:44.984Z,8.72
2022-12-12T03:47:16.440Z,8.85
2022-12-12T03:49:59.045Z,9.04
2022-12-12T03:52:36.011Z,9.07
2022-12-12T03:55:42.103Z,8.82
2022-12-12T03:58:16.810Z,8.88
2022-12-12T04:00:48.064Z,9.01
2022-12-12T04:03:37.560Z,8.90
2022-12-12T04:06:27.048Z,8.76
2022-12-12T04:09:24.840Z,8.68
2022-12-12T04:12:44.244Z,8.76
2022-12-12T04:15:17.760Z,8.89
2022-12-12T04:17:56.521Z,8.99
2022-12-12T04:20:51.960Z,9.06
2022-12-12T04:23:39.948Z,9.13
2022-12-12T04:26:34.623Z,8.91
2022-12-12T04:29:10.522Z,8.94
2022-12-12T04:31:45.530Z,8.81
2022-12-12T04:34:30.658Z,8.84
2022-12-12T04:36:57.671Z,8.83
2022-12-12T04:39:25.439Z,8.76
2022-12-12T04:41:54.965Z,8.65
2022-12-12T04:44:23.787Z,8.66
2022-12-12T04:46:54.769Z,8.79
2022-12-12T04:49:27.288Z,8.61
2022-12-12T04:51:59.971Z,8.56
2022-12-12T04:54:26.601Z,8.41
2022-12-12T04:56:58.984Z,8.35
2022-12-12T04:59:26.286Z,8.32
2022-12-12T05:02:00.423Z,8.32
2022-12-12T05:04:38.854Z,8.30
2022-12-12T05:07:15.405Z,8.16
2022-12-12T05:09:43.134Z,8.26
2022-12-12T05:12:10.051Z,8.24
2022-12-12T05:14:36.773Z,8.19
2022-12-12T05:17:09.429Z,8.17
2022-12-12T05:19:36.217Z,8.29
2022-12-12T05:22:03.162Z,8.35
2022-12-12T05:24:31.356Z,8.35
2022-12-12T05:27:00.043Z,8.49
2022-12-12T05:29:26.814Z,8.56
2022-12-12T05:31:53.493Z,8.39
2022-12-12T05:34:20.211Z,8.33
2022-12-12T05:36:47.882Z,8.32
2022-12-12T05:39:14.692Z,8.38
2022-12-12T05:41:41.444Z,8.35
2022-12-12T05:44:08.175Z,8.45
2022-12-12T05:46:34.951Z,8.47
2022-12-12T05:49:01.651Z,8.46
2022-12-12T05:51:28.362Z,8.54
2022-12-12T05:53:55.116Z,8.46
2022-12-12T05:56:21.803Z,8.26
2022-12-12T05:58:48.495Z,8.18
2022-12-12T06:01:15.175Z,8.06
2022-12-12T06:03:42.219Z,8.02
2022-12-12T06:06:08.913Z,7.91
2022-12-12T06:08:35.687Z,7.82
2022-12-12T06:11:05.561Z,7.78
2022-12-12T06:13:32.486Z,7.72
2022-12-12T06:15:59.205Z,7.64
2022-12-12T06:18:25.964Z,7.67
2022-12-12T06:21:02.057Z,7.75
2022-12-12T06:23:29.159Z,7.80
2022-12-12T06:25:55.813Z,7.75
2022-12-12T06:28:22.498Z,7.87
2022-12-12T06:30:49.200Z,7.94
2022-12-12T06:33:16.182Z,8.06
2022-12-12T06:35:42.960Z,8.21
2022-12-12T06:38:09.817Z,8.25
2022-12-12T06:40:40.008Z,8.24
2022-12-12T06:43:06.832Z,8.25
2022-12-12T06:45:33.641Z,8.25
2022-12-12T06:48:00.419Z,8.34
2022-12-12T06:50:27.088Z,8.18
2022-12-12T06:52:54.307Z,8.24
2022-12-12T06:55:20.987Z,8.19
2022-12-12T06:57:47.702Z,8.13
2022-12-12T07:00:15.008Z,8.08
2022-12-12T07:02:41.745Z,8.06
2022-12-12T07:05:08.704Z,8.04
2022-12-12T07:07:35.641Z,7.91
2022-12-12T07:10:02.376Z,7.99
2022-12-12T07:12:29.056Z,8.12
2022-12-12T07:14:55.945Z,8.00
2022-12-12T07:17:22.771Z,8.09
2022-12-12T07:19:49.465Z,8.21
2022-12-12T07:22:16.231Z,8.20
2022-12-12T07:24:42.910Z,8.25
2022-12-12T07:27:09.654Z,8.31
2022-12-12T07:29:36.334Z,8.27
2022-12-12T07:32:03.125Z,8.37
2022-12-12T07:34:30.320Z,8.44
2022-12-12T07:37:02.582Z,8.55
2022-12-12T07:39:31.323Z,8.64
2022-12-12T07:41:57.962Z,8.71
2022-12-12T07:44:25.685Z,8.68
2022-12-12T07:46:52.492Z,8.72
2022-12-12T07:49:19.583Z,8.89
2022-12-12T07:51:49.120Z,9.00
2022-12-12T07:54:16.509Z,9.13
2022-12-12T07:56:43.177Z,9.13
2022-12-12T07:59:09.899Z,9.18
2022-12-12T08:01:36.753Z,9.30
2022-12-12T08:04:03.642Z,9.44
2022-12-12T08:06:30.381Z,9.44
2022-12-12T08:08:57.192Z,9.52
2022-12-12T08:11:25.412Z,9.61
2022-12-12T08:13:52.922Z,9.59
2022-12-12T08:16:23.564Z,9.59
2022-12-12T08:18:52.871Z,9.73
2022-12-12T08:21:25.082Z,9.84
2022-12-12T08:23:56.666Z,9.90
2022-12-12T08:26:23.575Z,9.96
2022-12-12T08:28:50.207Z,9.70
2022-12-12T08:31:18.140Z,9.74
2022-12-12T08:33:45.591Z,9.61
2022-12-12T08:36:18.204Z,9.81
2022-12-12T08:38:45.310Z,9.96
2022-12-12T08:41:12.821Z,10.12
2022-12-12T08:43:41.464Z,10.05
2022-12-12T08:46:15.346Z,10.32
2022-12-12T08:48:44.057Z,10.08
2022-12-12T08:51:12.491Z,10.07
2022-12-12T08:53:39.230Z,10.02
2022-12-12T08:56:06.370Z,9.82
2022-12-12T08:58:33.167Z,9.80
2022-12-12T09:00:59.857Z,9.79
2022-12-12T09:03:29.376Z,10.05
2022-12-12T09:05:56.564Z,9.88
2022-12-12T09:08:23.344Z,10.08
2022-12-12T09:10:51.149Z,10.09
2022-12-12T09:13:18.553Z,10.08
2022-12-12T09:15:45.499Z,10.06
2022-12-12T09:18:12.431Z,10.31
2022-12-12T09:20:39.271Z,10.35
2022-12-12T09:23:05.913Z,10.41
2022-12-12T09:25:32.643Z,10.54
2022-12-12T09:27:59.363Z,10.41
2022-12-12T09:30:26.114Z,10.75
2022-12-12T09:32:55.155Z,10.80
2022-12-12T09:35:21.832Z,10.92
2022-12-12T09:37:48.462Z,10.86
2022-12-12T09:40:21.151Z,10.82
2022-12-12T09:42:51.859Z,10.90
2022-12-12T09:45:19.663Z,11.04
2022-12-12T09:47:53.213Z,10.97
2022-12-12T09:50:36.980Z,10.89
2022-12-12T09:53:10.093Z,11.11
2022-12-12T09:55:51.811Z,10.97
2022-12-12T09:58:44.998Z,11.09
2022-12-12T10:01:36.746Z,11.21
2022-12-12T10:04:33.936Z,11.03
2022-12-12T10:07:33.001Z,11.10
2022-12-12T10:10:23.259Z,11.14
2022-12-12T10:12:51.131Z,11.11
2022-12-12T10:15:42.092Z,11.34
2022-12-12T10:18:16.439Z,11.25
2022-12-12T10:20:55.975Z,11.45
2022-12-12T10:23:44.369Z,11.52
2022-12-12T10:26:31.556Z,11.60
2022-12-12T10:29:11.624Z,11.65
2022-12-12T10:31:44.420Z,11.71
2022-12-12T10:34:48.546Z,11.73
2022-12-12T10:37:21.100Z,11.80
2022-12-12T10:39:58.608Z,11.83
2022-12-12T10:42:32.089Z,11.84
2022-12-12T10:45:01.792Z,11.82
2022-12-12T10:47:28.647Z,11.76
2022-12-12T10:50:14.008Z,11.65
2022-12-12T10:52:40.750Z,11.65
2022-12-12T10:55:45.981Z,11.82
2022-12-12T10:58:13.481Z,11.77
2022-12-12T11:00:42.517Z,11.76
2022-12-12T11:03:45.194Z,11.63
2022-12-12T11:06:18.081Z,11.50
2022-12-12T11:09:23.227Z,11.40
2022-12-12T11:12:03.909Z,11.50
2022-12-12T11:14:39.030Z,11.59
2022-12-12T11:17:39.319Z,11.71
2022-12-12T11:20:16.593Z,11.80
2022-12-12T11:23:22.341Z,11.83
2022-12-12T11:27:25.924Z,11.92
2022-12-12T11:30:09.100Z,11.70
2022-12-12T11:32:44.063Z,11.78
2022-12-12T11:35:30.984Z,11.86
2022-12-12T11:38:01.574Z,11.92
2022-12-12T11:40:31.147Z,12.04
2022-12-12T11:43:37.230Z,12.04
2022-12-12T11:46:16.280Z,12.17
2022-12-12T11:48:51.939Z,12.14
2022-12-12T11:51:35.891Z,12.03
2022-12-12T11:54:05.892Z,11.87
2022-12-12T11:56:41.443Z,11.88
2022-12-12T11:59:22.749Z,11.78
2022-12-12T12:02:18.599Z,11.64
2022-12-12T12:04:53.230Z,11.52
2022-12-12T12:07:42.267Z,11.45
2022-12-12T12:10:24.072Z,11.31
2022-12-12T12:12:51.166Z,11.28
2022-12-12T12:15:35.964Z,11.39
2022-12-12T12:18:35.243Z,11.46
2022-12-12T12:21:29.801Z,11.64
2022-12-12T12:24:02.837Z,11.68
2022-12-12T12:26:51.131Z,11.47
2022-12-12T12:29:39.776Z,11.59
2022-12-12T12:32:12.706Z,11.72
2022-12-12T12:34:44.644Z,11.74
2022-12-12T12:37:34.091Z,11.63
2022-12-12T12:40:06.623Z,11.88
2022-12-12T12:42:50.044Z,12.03
2022-12-12T12:45:28.104Z,12.12
2022-12-12T12:48:05.772Z,12.18
2022-12-12T12:50:44.171Z,12.14
2022-12-12T12:53:16.787Z,12.19
2022-12-12T12:55:50.968Z,12.16
2022-12-12T12:58:24.505Z,12.06
2022-12-12T13:01:00.873Z,12.13
2022-12-12T13:03:35.536Z,12.30
2022-12-12T13:06:08.883Z,12.36
2022-12-12T13:08:52.387Z,12.34
2022-12-12T13:11:26.997Z,12.25
2022-12-12T13:13:57.975Z,12.22
2022-12-12T13:16:28.459Z,12.17
2022-12-12T13:19:06.715Z,12.26
2022-12-12T13:21:59.706Z,12.17
2022-12-12T13:24:33.183Z,12.22
2022-12-12T13:27:24.420Z,12.21
2022-12-12T13:29:59.831Z,12.17
2022-12-12T13:32:38.785Z,12.31
2022-12-12T13:35:30.421Z,12.40
2022-12-12T13:37:57.647Z,12.37
2022-12-12T13:40:29.499Z,12.29
2022-12-12T13:43:09.484Z,12.26
2022-12-12T13:45:45.482Z,12.36
2022-12-12T13:48:27.538Z,12.35
2022-12-12T13:51:28.351Z,12.46
2022-12-12T13:54:12.554Z,12.42
2022-12-12T13:56:47.790Z,12.41
2022-12-12T13:59:23.734Z,12.42
2022-12-12T14:02:15.296Z,12.37
2022-12-12T14:04:44.525Z,12.38
2022-12-12T14:07:19.384Z,12.40
2022-12-12T14:09:53.688Z,12.46
2022-12-12T14:12:30.720Z,12.47
2022-12-12T14:15:06.285Z,12.32
2022-12-12T14:17:42.178Z,12.35
2022-12-12T14:20:27.007Z,12.36
2022-12-12T14:22:59.498Z,12.28
2022-12-12T14:25:33.696Z,12.30
2022-12-12T14:28:04.121Z,12.27
2022-12-12T14:30:57.016Z,12.32
2022-12-12T14:33:52.683Z,12.35
2022-12-12T14:36:38.154Z,12.36
2022-12-12T14:39:28.796Z,12.39
2022-12-12T14:41:56.921Z,12.40
2022-12-12T14:44:37.981Z,12.38
2022-12-12T14:47:09.413Z,12.37
2022-12-12T14:49:36.334Z,12.34
2022-12-12T14:52:03.800Z,12.34
2022-12-12T14:54:31.348Z,12.33
2022-12-12T14:56:59.257Z,12.12
2022-12-12T14:59:30.888Z,11.97
2022-12-12T15:02:22.566Z,11.92
2022-12-12T15:04:58.032Z,11.98
2022-12-12T15:07:29.129Z,11.98
2022-12-12T15:09:56.071Z,12.05
2022-12-12T15:12:32.754Z,12.04
2022-12-12T15:14:59.641Z,11.94
2022-12-12T15:17:34.484Z,11.81
2022-12-12T15:20:01.129Z,11.63
2022-12-12T15:22:31.555Z,11.62
2022-12-12T15:25:01.496Z,11.56
2022-12-12T15:27:40.198Z,11.37
2022-12-12T15:30:33.930Z,11.19
2022-12-12T15:33:02.556Z,11.28
2022-12-12T15:35:29.447Z,11.08
2022-12-12T15:37:58.219Z,10.89
2022-12-12T15:40:31.104Z,10.90
2022-12-12T15:43:00.346Z,10.91
2022-12-12T15:45:29.606Z,11.07
2022-12-12T15:47:56.695Z,11.16
2022-12-12T15:50:37.667Z,11.22
2022-12-12T15:53:26.674Z,11.22
2022-12-12T15:56:13.763Z,11.11
2022-12-12T15:58:46.901Z,11.18
2022-12-12T16:01:20.865Z,10.85
2022-12-12T16:04:21.920Z,10.78
2022-12-12T16:06:49.239Z,10.86
2022-12-12T16:09:26.633Z,10.85
2022-12-12T16:11:57.645Z,10.79
2022-12-12T16:14:40.117Z,10.56
2022-12-12T16:17:14.278Z,10.62
2022-12-12T16:20:02.266Z,10.41
2022-12-12T16:22:45.616Z,10.30
2022-12-12T16:25:26.271Z,10.44
2022-12-12T16:28:23.196Z,10.46
2022-12-12T16:30:59.414Z,10.32
2022-12-12T16:33:35.186Z,10.07
2022-12-12T16:36:07.779Z,10.28
2022-12-12T16:38:35.192Z,10.16
2022-12-12T16:41:05.411Z,10.23
2022-12-12T16:43:32.253Z,10.09
2022-12-12T16:45:59.316Z,10.00
2022-12-12T16:48:37.749Z,10.13
2022-12-12T16:51:06.876Z,10.16
2022-12-12T16:53:35.059Z,10.17
2022-12-12T16:56:02.517Z,9.98
2022-12-12T16:58:33.618Z,9.90
2022-12-12T17:01:01.765Z,9.93
2022-12-12T17:03:29.952Z,9.81
2022-12-12T17:05:56.657Z,9.64
2022-12-12T17:08:23.439Z,9.53
2022-12-12T17:11:09.439Z,9.65
2022-12-12T17:13:37.621Z,9.59
2022-12-12T17:16:04.465Z,9.60
2022-12-12T17:18:31.364Z,9.65
2022-12-12T17:20:58.078Z,9.63
2022-12-12T17:23:27.573Z,9.66
2022-12-12T17:26:00.690Z,9.60
2022-12-12T17:28:29.564Z,9.61
2022-12-12T17:30:56.193Z,9.59
2022-12-12T17:33:22.889Z,9.61
2022-12-12T17:36:04.689Z,9.67
2022-12-12T17:38:32.091Z,9.64
2022-12-12T17:41:03.356Z,9.64
2022-12-12T17:43:30.147Z,9.65
2022-12-12T17:46:02.360Z,9.64
2022-12-12T17:48:31.301Z,9.71
2022-12-12T17:51:00.911Z,9.53
2022-12-12T17:53:32.322Z,9.30
2022-12-12T17:56:01.849Z,9.39
2022-12-12T17:58:40.304Z,9.49
2022-12-12T18:01:23.963Z,9.53
2022-12-12T18:03:51.590Z,9.54
2022-12-12T18:06:20.059Z,9.67
2022-12-12T18:08:47.991Z,9.76
2022-12-12T18:11:18.010Z,9.70
2022-12-12T18:13:48.577Z,9.66
2022-12-12T18:16:15.696Z,9.75
2022-12-12T18:18:42.930Z,9.77
2022-12-12T18:21:23.502Z,9.83
2022-12-12T18:24:00.077Z,9.82
2022-12-12T18:26:26.749Z,9.80
2022-12-12T18:28:59.468Z,9.82
2022-12-12T18:31:26.433Z,9.77
2022-12-12T18:33:53.295Z,9.80
2022-12-12T18:36:23.374Z,9.47
2022-12-12T18:38:50.475Z,9.52
2022-12-12T18:41:17.649Z,9.79
2022-12-12T18:43:44.440Z,9.74
2022-12-12T18:46:13.501Z,9.75
2022-12-12T18:48:42.541Z,9.94
2022-12-12T18:51:20.818Z,10.10
2022-12-12T18:53:48.826Z,10.12
2022-12-12T18:56:18.086Z,10.05
2022-12-12T18:58:45.155Z,10.14
2022-12-12T19:01:15.206Z,10.00
2022-12-12T19:03:44.046Z,9.95
2022-12-12T19:06:13.931Z,9.97
2022-12-12T19:08:41.023Z,10.15
2022-12-12T19:11:08.910Z,10.21
2022-12-12T19:13:35.749Z,9.98
2022-12-12T19:16:07.985Z,10.11
2022-12-12T19:18:35.537Z,10.15
2022-12-12T19:21:28.489Z,10.25
2022-12-12T19:23:55.599Z,10.21
2022-12-12T19:26:27.852Z,10.26
2022-12-12T19:28:59.521Z,10.28
2022-12-12T19:31:26.884Z,10.25
2022-12-12T19:33:54.037Z,10.29
2022-12-12T19:36:23.615Z,10.33
2022-12-12T19:38:51.365Z,10.28
2022-12-12T19:41:20.971Z,10.23
2022-12-12T19:43:49.564Z,10.17
2022-12-12T19:46:25.306Z,10.28
2022-12-12T19:48:57.771Z,10.16
2022-12-12T19:51:25.737Z,10.07
2022-12-12T19:53:54.636Z,10.09
2022-12-12T19:56:24.298Z,10.03
2022-12-12T19:58:51.024Z,10.00
2022-12-12T20:01:21.632Z,10.15
2022-12-12T20:03:50.491Z,10.12
2022-12-12T20:06:17.381Z,10.09
2022-12-12T20:08:44.690Z,9.91
2022-12-12T20:11:14.602Z,9.97
2022-12-12T20:13:41.666Z,9.98
2022-12-12T20:16:15.121Z,10.04
2022-12-12T20:18:42.256Z,10.12
2022-12-12T20:21:10.149Z,10.24
2022-12-12T20:23:43.822Z,10.23
2022-12-12T20:26:17.041Z,10.12
2022-12-12T20:28:43.889Z,10.19
2022-12-12T20:31:17.587Z,10.35
2022-12-12T20:33:44.661Z,10.26
2022-12-12T20:36:17.015Z,10.14
2022-12-12T20:38:44.175Z,9.94
2022-12-12T20:41:17.207Z,10.12
2022-12-12T20:43:44.876Z,10.14
2022-12-12T20:46:17.719Z,10.26
2022-12-12T20:48:45.588Z,10.12
2022-12-12T20:51:45.519Z,10.16
2022-12-12T20:54:04.222Z,10.16
2022-12-12T20:56:31.382Z,10.20
2022-12-12T20:59:00.265Z,10.27
2022-12-12T21:01:35.887Z,10.31
2022-12-12T21:04:05.047Z,10.27
2022-12-12T21:06:35.467Z,10.19
2022-12-12T21:09:05.949Z,10.20
2022-12-12T21:11:32.866Z,10.19
2022-12-12T21:13:59.557Z,10.15
2022-12-12T21:16:32.227Z,9.97
2022-12-12T21:19:01.653Z,10.18
2022-12-12T21:21:29.546Z,10.12
2022-12-12T21:23:56.743Z,10.07
2022-12-12T21:26:28.918Z,10.08
2022-12-12T21:28:57.901Z,9.95
2022-12-12T21:31:27.376Z,9.96
2022-12-12T21:33:54.610Z,10.04
2022-12-12T21:36:23.678Z,9.99
2022-12-12T21:38:51.579Z,10.09
2022-12-12T21:41:20.243Z,10.05
2022-12-12T21:43:47.185Z,10.08
2022-12-12T21:46:20.596Z,10.03
2022-12-12T21:49:07.771Z,10.05
2022-12-12T21:51:35.453Z,10.16
2022-12-12T21:54:03.928Z,10.20
2022-12-12T21:56:31.175Z,10.32
2022-12-12T21:58:58.272Z,10.31
2022-12-12T22:01:25.076Z,10.34
2022-12-12T22:03:51.799Z,10.34
2022-12-12T22:06:24.370Z,10.42
2022-12-12T22:08:51.682Z,10.37
2022-12-12T22:11:33.861Z,10.37
2022-12-12T22:14:07.666Z,10.44
2022-12-12T22:16:34.764Z,10.47
2022-12-12T22:19:05.998Z,10.47
2022-12-12T22:21:56.106Z,10.50
2022-12-12T22:24:23.316Z,10.54
2022-12-12T22:26:50.311Z,10.59
2022-12-12T22:29:19.679Z,10.53
2022-12-12T22:31:47.595Z,10.57
2022-12-12T22:34:19.685Z,10.46
2022-12-12T22:36:46.791Z,10.47
2022-12-12T22:39:16.811Z,10.46
2022-12-12T22:41:44.251Z,10.32
2022-12-12T22:44:14.893Z,10.48
2022-12-12T22:46:44.270Z,10.39
2022-12-12T22:49:14.187Z,10.55
2022-12-12T22:51:41.697Z,10.49
2022-12-12T22:54:08.508Z,10.62
2022-12-12T22:56:36.864Z,10.70
2022-12-12T22:59:04.908Z,10.75
2022-12-12T23:01:32.225Z,10.79
2022-12-12T23:03:59.315Z,10.88
2022-12-12T23:06:30.050Z,11.00
2022-12-12T23:08:59.605Z,11.05
2022-12-12T23:11:28.624Z,11.06
2022-12-12T23:14:07.157Z,11.12
2022-12-12T23:16:35.551Z,11.16
2022-12-12T23:19:04.738Z,11.15
2022-12-12T23:21:36.232Z,11.23
2022-12-12T23:24:04.533Z,11.28
2022-12-12T23:26:33.449Z,11.31
2022-12-12T23:29:00.456Z,11.35
2022-12-12T23:31:33.256Z,11.38
2022-12-12T23:34:03.983Z,11.43
2022-12-12T23:36:31.269Z,11.38
2022-12-12T23:39:01.055Z,11.41
2022-12-12T23:41:28.645Z,11.48
2022-12-12T23:43:56.164Z,11.52
2022-12-12T23:46:29.458Z,11.61
2022-12-12T23:49:02.299Z,11.59
2022-12-12T23:51:31.668Z,11.65
2022-12-12T23:53:59.552Z,11.67
2022-12-12T23:56:26.787Z,11.70
2022-12-12T23:58:55.065Z,11.64
